Pagina principale
METAR-TAF:

METAR-TAF

Aeroporti :

Brescia, Italia

Montichiari

latitudine: 45-24-02N, longitudine: 010-18-59E, altezza: 104 m

Osservazione

Il bollettino è stato emesso 1 ora e 11 minuti fa, alle 10:50 UTC
Vento 5 kt da sud-ovest
Temperature 9°C
Umidità 76%
Pressione 1013 hPa
Visibilità: 6000 m

METAR: LIPO 191050Z 22005KT 6000 NSC 09/05 Q1013

Ora: 13:01 (12:01 UTC)

Previsione

Il bollettino è stato emesso 1 ora e 1 minuti fa, alle 11:00 UTC
Previsione valida dal 19 alle 12 UTC al 20 alle 12 UTC
Vento 5 kt da direzioni variabili
Visibilità: 7000 m
Evoluzione graduale
dal 19 alle 20 UTC al 19 alle 22 UTC
Visibilità: 3000 m
foschia
Temporaneamente
dal 20 alle 02 UTC al 20 alle 07 UTC
Visibilità: 1200 m
banchi di nebbia

TAF: LIPO 191100Z 1912/2012 VRB05KT 7000 NSC BECMG 1920/1922 3000 BR TEMPO 2002/2007 1200 BCFG

Osservazioni e previsioni meteorologiche di più di 4000 aeroporti (messaggi METAR e TAF).

Le stazioni disponibili sono rappresentate dai dischi gialli e rossi sulla carta.

Puntare il mouse per vedere il nome della stazione.

Clicca sopra per visualizzare le osservazioni e previsioni meteorologiche.

Per cambiare la mappa : fare clic sui pulsanti verdi con una croce nera per ingrandire, il pulsante verde con un trattino per diminuire, o sulla freccia verde per le mappe adiacenti.


METAR-TAF: